sensor_id;sensor_type;location;lat;lon;timestamp;temperature;humidity
20594;DHT22;10455;48.732;10.266;2023-04-05T00:03:04;-3.90;99.90
20594;DHT22;10455;48.732;10.266;2023-04-05T00:08:09;-3.90;99.90
20594;DHT22;10455;48.732;10.266;2023-04-05T00:13:12;-3.90;99.90
20594;DHT22;10455;48.732;10.266;2023-04-05T00:18:16;-3.90;99.90
20594;DHT22;10455;48.732;10.266;2023-04-05T00:23:23;-3.90;99.90
20594;DHT22;10455;48.732;10.266;2023-04-05T00:28:26;-3.70;99.90
20594;DHT22;10455;48.732;10.266;2023-04-05T00:33:29;-3.70;99.90
20594;DHT22;10455;48.732;10.266;2023-04-05T00:38:32;-3.50;99.90
20594;DHT22;10455;48.732;10.266;2023-04-05T00:43:34;-3.50;99.90
20594;DHT22;10455;48.732;10.266;2023-04-05T00:48:38;-3.40;99.90
20594;DHT22;10455;48.732;10.266;2023-04-05T00:53:40;-3.40;99.90
20594;DHT22;10455;48.732;10.266;2023-04-05T00:58:44;-3.60;99.90
20594;DHT22;10455;48.732;10.266;2023-04-05T01:03:51;-3.60;99.90
20594;DHT22;10455;48.732;10.266;2023-04-05T01:09:00;-3.50;99.90
20594;DHT22;10455;48.732;10.266;2023-04-05T01:14:06;-3.70;99.90
20594;DHT22;10455;48.732;10.266;2023-04-05T01:19:09;-3.80;99.90
20594;DHT22;10455;48.732;10.266;2023-04-05T01:24:22;-4.10;99.90
20594;DHT22;10455;48.732;10.266;2023-04-05T01:29:49;-4.20;99.90
20594;DHT22;10455;48.732;10.266;2023-04-05T01:34:58;-4.40;99.90
20594;DHT22;10455;48.732;10.266;2023-04-05T01:40:02;-4.50;99.90
20594;DHT22;10455;48.732;10.266;2023-04-05T01:45:08;-4.70;99.90
20594;DHT22;10455;48.732;10.266;2023-04-05T01:50:10;-4.70;99.90
20594;DHT22;10455;48.732;10.266;2023-04-05T01:55:12;-4.80;99.90
20594;DHT22;10455;48.732;10.266;2023-04-05T02:00:17;-4.90;99.90
20594;DHT22;10455;48.732;10.266;2023-04-05T02:05:19;-5.10;99.90
20594;DHT22;10455;48.732;10.266;2023-04-05T02:10:21;-5.10;99.90
20594;DHT22;10455;48.732;10.266;2023-04-05T02:15:25;-5.20;99.90
20594;DHT22;10455;48.732;10.266;2023-04-05T02:20:27;-5.20;99.90
20594;DHT22;10455;48.732;10.266;2023-04-05T02:25:30;-5.30;99.90
20594;DHT22;10455;48.732;10.266;2023-04-05T02:30:33;-5.30;99.90
20594;DHT22;10455;48.732;10.266;2023-04-05T02:35:36;-5.30;99.90
20594;DHT22;10455;48.732;10.266;2023-04-05T02:40:38;-5.40;99.90
20594;DHT22;10455;48.732;10.266;2023-04-05T02:45:43;-5.60;99.90
20594;DHT22;10455;48.732;10.266;2023-04-05T02:50:46;-5.50;99.90
20594;DHT22;10455;48.732;10.266;2023-04-05T02:55:56;-5.60;99.90
20594;DHT22;10455;48.732;10.266;2023-04-05T03:01:01;-5.60;99.90
20594;DHT22;10455;48.732;10.266;2023-04-05T03:06:07;-5.60;99.90
20594;DHT22;10455;48.732;10.266;2023-04-05T03:11:24;-5.70;99.90
20594;DHT22;10455;48.732;10.266;2023-04-05T03:22:21;-5.80;99.90
20594;DHT22;10455;48.732;10.266;2023-04-05T03:27:59;-5.90;99.90
20594;DHT22;10455;48.732;10.266;2023-04-05T03:33:40;-5.90;99.90
20594;DHT22;10455;48.732;10.266;2023-04-05T03:39:13;-6.00;99.90
20594;DHT22;10455;48.732;10.266;2023-04-05T03:44:31;-6.00;99.90
20594;DHT22;10455;48.732;10.266;2023-04-05T03:49:49;-5.90;99.90
20594;DHT22;10455;48.732;10.266;2023-04-05T03:55:20;-6.00;99.90
20594;DHT22;10455;48.732;10.266;2023-04-05T04:00:54;-5.90;99.90
20594;DHT22;10455;48.732;10.266;2023-04-05T04:06:23;-5.90;99.90
20594;DHT22;10455;48.732;10.266;2023-04-05T04:11:49;-6.00;99.90
20594;DHT22;10455;48.732;10.266;2023-04-05T05:18:17;-5.90;99.90
20594;DHT22;10455;48.732;10.266;2023-04-05T05:23:19;-3.90;99.90
20594;DHT22;10455;48.732;10.266;2023-04-05T05:28:49;-1.90;99.90
20594;DHT22;10455;48.732;10.266;2023-04-05T05:58:18;10.40;99.10
20594;DHT22;10455;48.732;10.266;2023-04-05T06:03:20;12.10;95.00
20594;DHT22;10455;48.732;10.266;2023-04-05T06:08:25;12.90;90.00
20594;DHT22;10455;48.732;10.266;2023-04-05T06:13:29;13.80;86.80
20594;DHT22;10455;48.732;10.266;2023-04-05T06:18:31;15.10;78.00
20594;DHT22;10455;48.732;10.266;2023-04-05T06:23:33;15.60;76.80
20594;DHT22;10455;48.732;10.266;2023-04-05T06:28:36;18.10;71.20
20594;DHT22;10455;48.732;10.266;2023-04-05T06:33:38;18.10;72.20
20594;DHT22;10455;48.732;10.266;2023-04-05T06:38:40;19.00;68.30
20594;DHT22;10455;48.732;10.266;2023-04-05T06:43:44;18.60;67.50
20594;DHT22;10455;48.732;10.266;2023-04-05T06:48:46;19.70;67.30
20594;DHT22;10455;48.732;10.266;2023-04-05T07:41:58;12.70;74.90
20594;DHT22;10455;48.732;10.266;2023-04-05T07:47:00;12.70;73.80
20594;DHT22;10455;48.732;10.266;2023-04-05T07:52:04;14.00;65.40
20594;DHT22;10455;48.732;10.266;2023-04-05T07:57:08;13.70;67.60
20594;DHT22;10455;48.732;10.266;2023-04-05T08:02:11;14.30;66.40
20594;DHT22;10455;48.732;10.266;2023-04-05T08:07:13;13.80;66.20
20594;DHT22;10455;48.732;10.266;2023-04-05T08:12:16;13.10;66.80
20594;DHT22;10455;48.732;10.266;2023-04-05T08:17:18;13.40;65.10
20594;DHT22;10455;48.732;10.266;2023-04-05T08:22:20;12.20;68.50
20594;DHT22;10455;48.732;10.266;2023-04-05T08:27:24;14.20;65.10
20594;DHT22;10455;48.732;10.266;2023-04-05T08:32:25;15.20;62.90
20594;DHT22;10455;48.732;10.266;2023-04-05T08:37:27;13.20;63.20
20594;DHT22;10455;48.732;10.266;2023-04-05T08:42:35;15.10;61.50
20594;DHT22;10455;48.732;10.266;2023-04-05T08:47:37;12.60;63.80
20594;DHT22;10455;48.732;10.266;2023-04-05T08:52:40;13.70;64.20
20594;DHT22;10455;48.732;10.266;2023-04-05T08:57:49;14.20;63.40
20594;DHT22;10455;48.732;10.266;2023-04-05T09:02:55;9.80;68.40
20594;DHT22;10455;48.732;10.266;2023-04-05T09:07:58;8.70;77.30
20594;DHT22;10455;48.732;10.266;2023-04-05T09:13:02;12.70;61.10
20594;DHT22;10455;48.732;10.266;2023-04-05T09:18:04;7.30;70.00
20594;DHT22;10455;48.732;10.266;2023-04-05T09:23:06;10.60;68.30
20594;DHT22;10455;48.732;10.266;2023-04-05T09:28:09;9.60;69.40
20594;DHT22;10455;48.732;10.266;2023-04-05T09:33:14;6.80;70.40
20594;DHT22;10455;48.732;10.266;2023-04-05T09:38:16;7.90;74.20
20594;DHT22;10455;48.732;10.266;2023-04-05T09:43:38;9.70;67.40
20594;DHT22;10455;48.732;10.266;2023-04-05T09:48:47;10.30;68.40
20594;DHT22;10455;48.732;10.266;2023-04-05T09:53:56;9.40;69.90
20594;DHT22;10455;48.732;10.266;2023-04-05T09:59:01;9.70;70.00
20594;DHT22;10455;48.732;10.266;2023-04-05T10:04:06;9.70;70.20
20594;DHT22;10455;48.732;10.266;2023-04-05T10:09:09;9.90;71.00
20594;DHT22;10455;48.732;10.266;2023-04-05T10:14:15;14.00;66.30
20594;DHT22;10455;48.732;10.266;2023-04-05T10:19:25;11.80;65.10
20594;DHT22;10455;48.732;10.266;2023-04-05T10:24:33;10.30;70.20
20594;DHT22;10455;48.732;10.266;2023-04-05T10:29:45;8.20;74.20
20594;DHT22;10455;48.732;10.266;2023-04-05T10:34:56;8.90;70.80
20594;DHT22;10455;48.732;10.266;2023-04-05T10:40:02;9.80;72.50
20594;DHT22;10455;48.732;10.266;2023-04-05T10:45:07;10.30;69.60
20594;DHT22;10455;48.732;10.266;2023-04-05T10:50:16;11.20;68.40
20594;DHT22;10455;48.732;10.266;2023-04-05T10:55:21;10.50;67.70
20594;DHT22;10455;48.732;10.266;2023-04-05T11:00:25;10.00;71.90
20594;DHT22;10455;48.732;10.266;2023-04-05T11:05:28;10.50;68.50
20594;DHT22;10455;48.732;10.266;2023-04-05T11:10:33;9.80;72.30
20594;DHT22;10455;48.732;10.266;2023-04-05T11:15:37;10.50;72.10
20594;DHT22;10455;48.732;10.266;2023-04-05T11:20:44;11.00;68.30
20594;DHT22;10455;48.732;10.266;2023-04-05T11:25:49;10.00;70.50
20594;DHT22;10455;48.732;10.266;2023-04-05T11:30:53;10.20;71.30
20594;DHT22;10455;48.732;10.266;2023-04-05T11:36:01;9.30;75.20
20594;DHT22;10455;48.732;10.266;2023-04-05T11:41:11;9.90;73.90
20594;DHT22;10455;48.732;10.266;2023-04-05T11:46:18;11.20;74.70
20594;DHT22;10455;48.732;10.266;2023-04-05T11:51:23;12.40;65.10
20594;DHT22;10455;48.732;10.266;2023-04-05T11:56:28;10.60;70.00
20594;DHT22;10455;48.732;10.266;2023-04-05T12:01:32;10.00;72.80
20594;DHT22;10455;48.732;10.266;2023-04-05T12:06:34;8.70;74.20
20594;DHT22;10455;48.732;10.266;2023-04-05T12:11:36;8.80;76.60
20594;DHT22;10455;48.732;10.266;2023-04-05T12:16:49;8.60;77.70
20594;DHT22;10455;48.732;10.266;2023-04-05T12:21:51;10.40;70.70
20594;DHT22;10455;48.732;10.266;2023-04-05T12:26:53;11.20;73.10
20594;DHT22;10455;48.732;10.266;2023-04-05T12:31:56;10.20;74.10
20594;DHT22;10455;48.732;10.266;2023-04-05T12:36:59;10.40;71.70
20594;DHT22;10455;48.732;10.266;2023-04-05T12:42:03;10.70;72.50
20594;DHT22;10455;48.732;10.266;2023-04-05T12:47:06;11.50;71.30
20594;DHT22;10455;48.732;10.266;2023-04-05T12:52:10;9.70;72.90
20594;DHT22;10455;48.732;10.266;2023-04-05T12:57:28;8.50;71.10
20594;DHT22;10455;48.732;10.266;2023-04-05T13:02:31;7.60;75.30
20594;DHT22;10455;48.732;10.266;2023-04-05T13:07:33;8.60;69.60
20594;DHT22;10455;48.732;10.266;2023-04-05T13:12:36;8.80;71.50
20594;DHT22;10455;48.732;10.266;2023-04-05T13:17:40;10.10;67.40
20594;DHT22;10455;48.732;10.266;2023-04-05T13:22:42;8.70;72.70
20594;DHT22;10455;48.732;10.266;2023-04-05T13:27:44;10.90;70.70
20594;DHT22;10455;48.732;10.266;2023-04-05T13:32:47;10.90;70.00
20594;DHT22;10455;48.732;10.266;2023-04-05T13:37:49;11.10;67.30
20594;DHT22;10455;48.732;10.266;2023-04-05T13:42:51;11.10;66.90
20594;DHT22;10455;48.732;10.266;2023-04-05T13:47:54;10.60;68.70
20594;DHT22;10455;48.732;10.266;2023-04-05T13:52:56;9.50;71.00
20594;DHT22;10455;48.732;10.266;2023-04-05T13:57:58;9.10;75.40
20594;DHT22;10455;48.732;10.266;2023-04-05T14:03:01;11.30;66.40
20594;DHT22;10455;48.732;10.266;2023-04-05T14:08:03;11.60;65.60
20594;DHT22;10455;48.732;10.266;2023-04-05T14:13:05;9.90;67.50
20594;DHT22;10455;48.732;10.266;2023-04-05T14:18:09;9.10;73.30
20594;DHT22;10455;48.732;10.266;2023-04-05T14:23:11;8.30;78.20
20594;DHT22;10455;48.732;10.266;2023-04-05T14:28:13;8.00;77.40
20594;DHT22;10455;48.732;10.266;2023-04-05T14:33:17;8.90;73.00
20594;DHT22;10455;48.732;10.266;2023-04-05T14:38:19;8.40;74.80
20594;DHT22;10455;48.732;10.266;2023-04-05T14:43:21;8.20;76.10
20594;DHT22;10455;48.732;10.266;2023-04-05T14:48:26;10.30;71.50
20594;DHT22;10455;48.732;10.266;2023-04-05T14:53:30;10.20;69.00
20594;DHT22;10455;48.732;10.266;2023-04-05T14:58:32;10.40;66.50
20594;DHT22;10455;48.732;10.266;2023-04-05T15:03:35;10.10;66.90
20594;DHT22;10455;48.732;10.266;2023-04-05T15:08:37;9.70;71.20
20594;DHT22;10455;48.732;10.266;2023-04-05T15:13:39;9.50;74.80
20594;DHT22;10455;48.732;10.266;2023-04-05T15:18:43;10.10;68.70
20594;DHT22;10455;48.732;10.266;2023-04-05T15:23:45;10.40;71.80
20594;DHT22;10455;48.732;10.266;2023-04-05T15:28:47;10.70;69.10
20594;DHT22;10455;48.732;10.266;2023-04-05T15:33:50;12.70;65.80
20594;DHT22;10455;48.732;10.266;2023-04-05T15:38:52;13.90;63.20
20594;DHT22;10455;48.732;10.266;2023-04-05T15:43:54;15.30;59.00
20594;DHT22;10455;48.732;10.266;2023-04-05T15:48:58;14.50;59.30
20594;DHT22;10455;48.732;10.266;2023-04-05T15:54:00;13.40;61.00
20594;DHT22;10455;48.732;10.266;2023-04-05T15:59:02;14.30;60.60
20594;DHT22;10455;48.732;10.266;2023-04-05T16:04:05;14.70;60.20
20594;DHT22;10455;48.732;10.266;2023-04-05T16:09:07;11.60;66.60
20594;DHT22;10455;48.732;10.266;2023-04-05T16:14:09;10.50;67.80
20594;DHT22;10455;48.732;10.266;2023-04-05T16:19:13;10.00;68.00
20594;DHT22;10455;48.732;10.266;2023-04-05T16:24:15;9.40;71.80
20594;DHT22;10455;48.732;10.266;2023-04-05T16:29:17;8.90;74.80
20594;DHT22;10455;48.732;10.266;2023-04-05T16:34:20;8.30;75.60
20594;DHT22;10455;48.732;10.266;2023-04-05T16:39:22;7.20;80.30
20594;DHT22;10455;48.732;10.266;2023-04-05T16:44:24;6.90;82.00
20594;DHT22;10455;48.732;10.266;2023-04-05T16:49:28;6.60;81.70
20594;DHT22;10455;48.732;10.266;2023-04-05T16:54:30;6.50;83.80
20594;DHT22;10455;48.732;10.266;2023-04-05T16:59:32;6.50;84.60
20594;DHT22;10455;48.732;10.266;2023-04-05T17:04:35;6.30;85.60
20594;DHT22;10455;48.732;10.266;2023-04-05T17:09:38;6.00;83.80
20594;DHT22;10455;48.732;10.266;2023-04-05T17:14:40;5.90;83.80
20594;DHT22;10455;48.732;10.266;2023-04-05T17:19:43;5.70;87.10
20594;DHT22;10455;48.732;10.266;2023-04-05T17:24:45;5.40;85.50
20594;DHT22;10455;48.732;10.266;2023-04-05T17:29:48;5.10;85.50
20594;DHT22;10455;48.732;10.266;2023-04-05T17:34:52;4.70;90.20
20594;DHT22;10455;48.732;10.266;2023-04-05T17:39:54;4.30;91.30
20594;DHT22;10455;48.732;10.266;2023-04-05T17:44:56;3.90;90.90
20594;DHT22;10455;48.732;10.266;2023-04-05T17:49:59;3.60;91.20
20594;DHT22;10455;48.732;10.266;2023-04-05T17:55:01;3.20;92.30
20594;DHT22;10455;48.732;10.266;2023-04-05T18:00:05;2.70;93.50
20594;DHT22;10455;48.732;10.266;2023-04-05T18:05:09;2.20;94.70
20594;DHT22;10455;48.732;10.266;2023-04-05T18:10:11;1.90;95.20
20594;DHT22;10455;48.732;10.266;2023-04-05T18:15:13;1.50;96.30
20594;DHT22;10455;48.732;10.266;2023-04-05T18:20:18;1.10;97.40
20594;DHT22;10455;48.732;10.266;2023-04-05T18:25:20;0.90;97.60
20594;DHT22;10455;48.732;10.266;2023-04-05T18:30:22;0.80;98.80
20594;DHT22;10455;48.732;10.266;2023-04-05T18:35:26;0.50;99.50
20594;DHT22;10455;48.732;10.266;2023-04-05T18:40:28;0.30;99.90
20594;DHT22;10455;48.732;10.266;2023-04-05T18:45:30;0.00;99.90
20594;DHT22;10455;48.732;10.266;2023-04-05T18:50:34;-0.10;99.90
20594;DHT22;10455;48.732;10.266;2023-04-05T18:55:37;-0.20;99.90
20594;DHT22;10455;48.732;10.266;2023-04-05T19:00:39;-0.40;99.90
20594;DHT22;10455;48.732;10.266;2023-04-05T19:05:47;-0.40;99.90
20594;DHT22;10455;48.732;10.266;2023-04-05T19:10:50;-0.60;99.90
20594;DHT22;10455;48.732;10.266;2023-04-05T19:15:52;-0.70;99.90
20594;DHT22;10455;48.732;10.266;2023-04-05T19:20:56;-0.90;99.90
20594;DHT22;10455;48.732;10.266;2023-04-05T19:25:58;-0.80;99.90
20594;DHT22;10455;48.732;10.266;2023-04-05T19:31:01;-0.90;99.90
20594;DHT22;10455;48.732;10.266;2023-04-05T19:36:04;-1.00;99.90
20594;DHT22;10455;48.732;10.266;2023-04-05T19:41:07;-1.20;99.90
20594;DHT22;10455;48.732;10.266;2023-04-05T19:46:09;-1.30;99.90
20594;DHT22;10455;48.732;10.266;2023-04-05T19:51:14;-1.30;99.90
20594;DHT22;10455;48.732;10.266;2023-04-05T19:56:20;-1.40;99.90
20594;DHT22;10455;48.732;10.266;2023-04-05T20:01:31;-1.60;99.90
20594;DHT22;10455;48.732;10.266;2023-04-05T20:06:35;-1.60;99.90
20594;DHT22;10455;48.732;10.266;2023-04-05T20:11:37;-1.50;99.90
20594;DHT22;10455;48.732;10.266;2023-04-05T20:16:39;-1.60;99.90
20594;DHT22;10455;48.732;10.266;2023-04-05T20:21:43;-1.70;99.90
20594;DHT22;10455;48.732;10.266;2023-04-05T20:26:45;-1.90;99.90
20594;DHT22;10455;48.732;10.266;2023-04-05T20:31:47;-1.90;99.90
20594;DHT22;10455;48.732;10.266;2023-04-05T20:36:54;-2.10;99.90
20594;DHT22;10455;48.732;10.266;2023-04-05T20:41:57;-2.10;99.90
20594;DHT22;10455;48.732;10.266;2023-04-05T20:47:00;-2.20;99.90
20594;DHT22;10455;48.732;10.266;2023-04-05T20:52:03;-2.20;99.90
20594;DHT22;10455;48.732;10.266;2023-04-05T20:57:07;-2.10;99.90
20594;DHT22;10455;48.732;10.266;2023-04-05T21:02:09;-2.20;99.90
20594;DHT22;10455;48.732;10.266;2023-04-05T21:07:13;-2.40;99.90
20594;DHT22;10455;48.732;10.266;2023-04-05T21:12:15;-2.40;99.90
20594;DHT22;10455;48.732;10.266;2023-04-05T21:17:17;-2.50;99.90
20594;DHT22;10455;48.732;10.266;2023-04-05T21:22:21;-2.50;99.90
20594;DHT22;10455;48.732;10.266;2023-04-05T21:27:23;-2.60;99.90
20594;DHT22;10455;48.732;10.266;2023-04-05T21:32:26;-2.60;99.90
20594;DHT22;10455;48.732;10.266;2023-04-05T21:37:30;-2.70;99.90
20594;DHT22;10455;48.732;10.266;2023-04-05T21:42:32;-2.80;99.90
20594;DHT22;10455;48.732;10.266;2023-04-05T21:47:34;-2.90;99.90
20594;DHT22;10455;48.732;10.266;2023-04-05T21:52:38;-2.90;99.90
20594;DHT22;10455;48.732;10.266;2023-04-05T21:57:40;-2.90;99.90
20594;DHT22;10455;48.732;10.266;2023-04-05T22:02:42;-3.00;99.90
20594;DHT22;10455;48.732;10.266;2023-04-05T22:07:46;-3.00;99.90
20594;DHT22;10455;48.732;10.266;2023-04-05T22:12:48;-3.10;99.90
20594;DHT22;10455;48.732;10.266;2023-04-05T22:17:50;-3.10;99.90
20594;DHT22;10455;48.732;10.266;2023-04-05T22:22:54;-3.20;99.90
20594;DHT22;10455;48.732;10.266;2023-04-05T22:27:56;-3.20;99.90
20594;DHT22;10455;48.732;10.266;2023-04-05T22:33:00;-3.20;99.90
20594;DHT22;10455;48.732;10.266;2023-04-05T22:38:04;-3.30;99.90
20594;DHT22;10455;48.732;10.266;2023-04-05T22:43:06;-3.30;99.90
20594;DHT22;10455;48.732;10.266;2023-04-05T22:48:09;-3.30;99.90
20594;DHT22;10455;48.732;10.266;2023-04-05T22:53:13;-3.40;99.90
20594;DHT22;10455;48.732;10.266;2023-04-05T22:58:15;-3.40;99.90
20594;DHT22;10455;48.732;10.266;2023-04-05T23:03:19;-3.40;99.90
20594;DHT22;10455;48.732;10.266;2023-04-05T23:08:23;-3.60;99.90
20594;DHT22;10455;48.732;10.266;2023-04-05T23:13:25;-3.70;99.90
20594;DHT22;10455;48.732;10.266;2023-04-05T23:18:27;-3.70;99.90
20594;DHT22;10455;48.732;10.266;2023-04-05T23:23:31;-3.60;99.90
20594;DHT22;10455;48.732;10.266;2023-04-05T23:28:34;-3.70;99.90
20594;DHT22;10455;48.732;10.266;2023-04-05T23:33:36;-3.70;99.90
20594;DHT22;10455;48.732;10.266;2023-04-05T23:38:40;-3.80;99.90
20594;DHT22;10455;48.732;10.266;2023-04-05T23:43:42;-3.80;99.90
20594;DHT22;10455;48.732;10.266;2023-04-05T23:48:44;-3.80;99.90
20594;DHT22;10455;48.732;10.266;2023-04-05T23:53:48;-3.80;99.90
20594;DHT22;10455;48.732;10.266;2023-04-05T23:58:51;-3.80;99.90
